sensor_id;sensor_type;location;lat;lon;timestamp;temperature;humidity
7445;DHT22;3764;48.126;11.594;2022-09-01T00:01:40;16.30;99.90
7445;DHT22;3764;48.126;11.594;2022-09-01T00:04:11;16.30;99.90
7445;DHT22;3764;48.126;11.594;2022-09-01T00:06:40;16.20;99.90
7445;DHT22;3764;48.126;11.594;2022-09-01T00:09:09;16.30;99.90
7445;DHT22;3764;48.126;11.594;2022-09-01T00:11:38;16.30;99.90
7445;DHT22;3764;48.126;11.594;2022-09-01T00:14:06;16.30;99.90
7445;DHT22;3764;48.126;11.594;2022-09-01T00:16:34;16.30;99.90
7445;DHT22;3764;48.126;11.594;2022-09-01T00:19:02;16.30;99.90
7445;DHT22;3764;48.126;11.594;2022-09-01T00:21:33;16.30;99.90
7445;DHT22;3764;48.126;11.594;2022-09-01T00:24:01;16.30;99.90
7445;DHT22;3764;48.126;11.594;2022-09-01T00:26:28;16.30;99.90
7445;DHT22;3764;48.126;11.594;2022-09-01T00:28:56;16.30;99.90
7445;DHT22;3764;48.126;11.594;2022-09-01T00:31:24;16.30;99.90
7445;DHT22;3764;48.126;11.594;2022-09-01T00:33:51;16.30;99.90
7445;DHT22;3764;48.126;11.594;2022-09-01T00:36:19;16.30;99.90
7445;DHT22;3764;48.126;11.594;2022-09-01T00:38:49;16.30;99.90
7445;DHT22;3764;48.126;11.594;2022-09-01T00:41:17;16.30;99.90
7445;DHT22;3764;48.126;11.594;2022-09-01T00:43:47;16.30;99.90
7445;DHT22;3764;48.126;11.594;2022-09-01T00:46:16;16.30;99.90
7445;DHT22;3764;48.126;11.594;2022-09-01T00:48:44;16.30;99.90
7445;DHT22;3764;48.126;11.594;2022-09-01T00:51:15;16.30;99.90
7445;DHT22;3764;48.126;11.594;2022-09-01T00:53:42;16.30;99.90
7445;DHT22;3764;48.126;11.594;2022-09-01T00:56:12;16.30;99.90
7445;DHT22;3764;48.126;11.594;2022-09-01T00:58:40;16.30;99.90
7445;DHT22;3764;48.126;11.594;2022-09-01T01:01:10;16.30;99.90
7445;DHT22;3764;48.126;11.594;2022-09-01T01:03:37;16.30;99.90
7445;DHT22;3764;48.126;11.594;2022-09-01T01:06:10;16.30;99.90
7445;DHT22;3764;48.126;11.594;2022-09-01T01:08:41;16.30;99.90
7445;DHT22;3764;48.126;11.594;2022-09-01T01:11:26;16.30;99.90
7445;DHT22;3764;48.126;11.594;2022-09-01T01:13:56;16.30;99.90
7445;DHT22;3764;48.126;11.594;2022-09-01T01:16:26;16.30;99.90
7445;DHT22;3764;48.126;11.594;2022-09-01T01:18:54;16.30;99.90
7445;DHT22;3764;48.126;11.594;2022-09-01T01:21:28;16.30;99.90
7445;DHT22;3764;48.126;11.594;2022-09-01T01:24:25;16.30;99.90
7445;DHT22;3764;48.126;11.594;2022-09-01T01:26:53;16.30;99.90
7445;DHT22;3764;48.126;11.594;2022-09-01T01:29:22;16.30;99.90
7445;DHT22;3764;48.126;11.594;2022-09-01T01:31:50;16.20;99.90
7445;DHT22;3764;48.126;11.594;2022-09-01T01:34:18;16.30;99.90
7445;DHT22;3764;48.126;11.594;2022-09-01T01:36:47;16.30;99.90
7445;DHT22;3764;48.126;11.594;2022-09-01T01:39:17;16.30;99.90
7445;DHT22;3764;48.126;11.594;2022-09-01T01:41:48;16.20;99.90
7445;DHT22;3764;48.126;11.594;2022-09-01T01:44:17;16.20;99.90
7445;DHT22;3764;48.126;11.594;2022-09-01T01:46:47;16.20;99.90
7445;DHT22;3764;48.126;11.594;2022-09-01T01:49:15;16.20;99.90
7445;DHT22;3764;48.126;11.594;2022-09-01T01:51:45;16.20;99.90
7445;DHT22;3764;48.126;11.594;2022-09-01T01:54:13;16.20;99.90
7445;DHT22;3764;48.126;11.594;2022-09-01T01:56:41;16.10;99.90
7445;DHT22;3764;48.126;11.594;2022-09-01T01:59:10;16.10;99.90
7445;DHT22;3764;48.126;11.594;2022-09-01T02:01:42;16.10;99.90
7445;DHT22;3764;48.126;11.594;2022-09-01T02:04:16;16.10;99.90
7445;DHT22;3764;48.126;11.594;2022-09-01T02:06:44;16.10;99.90
7445;DHT22;3764;48.126;11.594;2022-09-01T02:09:13;16.10;99.90
7445;DHT22;3764;48.126;11.594;2022-09-01T02:11:41;16.10;99.90
7445;DHT22;3764;48.126;11.594;2022-09-01T02:14:11;16.10;99.90
7445;DHT22;3764;48.126;11.594;2022-09-01T02:16:42;16.10;99.90
7445;DHT22;3764;48.126;11.594;2022-09-01T02:19:09;16.10;99.90
7445;DHT22;3764;48.126;11.594;2022-09-01T02:21:37;16.10;99.90
7445;DHT22;3764;48.126;11.594;2022-09-01T02:24:09;16.10;99.90
7445;DHT22;3764;48.126;11.594;2022-09-01T02:26:39;16.10;99.90
7445;DHT22;3764;48.126;11.594;2022-09-01T02:29:11;16.10;99.90
7445;DHT22;3764;48.126;11.594;2022-09-01T02:31:43;16.10;99.90
7445;DHT22;3764;48.126;11.594;2022-09-01T02:34:11;16.10;99.90
7445;DHT22;3764;48.126;11.594;2022-09-01T02:36:40;16.10;99.90
7445;DHT22;3764;48.126;11.594;2022-09-01T02:39:09;16.10;99.90
7445;DHT22;3764;48.126;11.594;2022-09-01T02:41:36;16.00;99.90
7445;DHT22;3764;48.126;11.594;2022-09-01T02:44:04;16.00;99.90
7445;DHT22;3764;48.126;11.594;2022-09-01T02:46:38;16.00;99.90
7445;DHT22;3764;48.126;11.594;2022-09-01T02:49:08;15.90;99.90
7445;DHT22;3764;48.126;11.594;2022-09-01T02:51:40;15.90;99.90
7445;DHT22;3764;48.126;11.594;2022-09-01T02:54:08;15.90;99.90
7445;DHT22;3764;48.126;11.594;2022-09-01T02:56:35;15.90;99.90
7445;DHT22;3764;48.126;11.594;2022-09-01T02:59:02;15.90;99.90
7445;DHT22;3764;48.126;11.594;2022-09-01T03:01:31;15.90;99.90
7445;DHT22;3764;48.126;11.594;2022-09-01T03:04:02;15.90;99.90
7445;DHT22;3764;48.126;11.594;2022-09-01T03:06:30;15.80;99.90
7445;DHT22;3764;48.126;11.594;2022-09-01T03:08:59;15.90;99.90
7445;DHT22;3764;48.126;11.594;2022-09-01T03:11:27;15.80;99.90
7445;DHT22;3764;48.126;11.594;2022-09-01T03:13:55;15.80;99.90
7445;DHT22;3764;48.126;11.594;2022-09-01T03:16:22;15.80;99.90
7445;DHT22;3764;48.126;11.594;2022-09-01T03:18:49;15.80;99.90
7445;DHT22;3764;48.126;11.594;2022-09-01T03:21:19;15.80;99.90
7445;DHT22;3764;48.126;11.594;2022-09-01T03:23:47;15.80;99.90
7445;DHT22;3764;48.126;11.594;2022-09-01T03:26:16;15.80;99.90
7445;DHT22;3764;48.126;11.594;2022-09-01T03:28:45;15.80;99.90
7445;DHT22;3764;48.126;11.594;2022-09-01T03:31:14;15.70;99.90
7445;DHT22;3764;48.126;11.594;2022-09-01T03:33:42;15.70;99.90
7445;DHT22;3764;48.126;11.594;2022-09-01T03:36:10;15.70;99.90
7445;DHT22;3764;48.126;11.594;2022-09-01T03:38:45;15.80;99.90
7445;DHT22;3764;48.126;11.594;2022-09-01T03:41:15;15.80;99.90
7445;DHT22;3764;48.126;11.594;2022-09-01T03:43:44;15.80;99.90
7445;DHT22;3764;48.126;11.594;2022-09-01T03:46:12;15.80;99.90
7445;DHT22;3764;48.126;11.594;2022-09-01T03:48:45;15.80;99.90
7445;DHT22;3764;48.126;11.594;2022-09-01T03:51:13;15.80;99.90
7445;DHT22;3764;48.126;11.594;2022-09-01T03:53:41;15.70;99.90
7445;DHT22;3764;48.126;11.594;2022-09-01T03:56:09;15.80;99.90
7445;DHT22;3764;48.126;11.594;2022-09-01T03:58:38;15.80;99.90
7445;DHT22;3764;48.126;11.594;2022-09-01T04:01:07;15.80;99.90
7445;DHT22;3764;48.126;11.594;2022-09-01T04:03:38;15.80;99.90
7445;DHT22;3764;48.126;11.594;2022-09-01T04:06:08;15.80;99.90
7445;DHT22;3764;48.126;11.594;2022-09-01T04:08:36;15.80;99.90
7445;DHT22;3764;48.126;11.594;2022-09-01T04:11:12;15.80;99.90
7445;DHT22;3764;48.126;11.594;2022-09-01T04:13:41;15.70;99.90
7445;DHT22;3764;48.126;11.594;2022-09-01T04:16:17;15.70;99.90
7445;DHT22;3764;48.126;11.594;2022-09-01T04:18:58;15.80;99.90
7445;DHT22;3764;48.126;11.594;2022-09-01T04:21:25;15.70;99.90
7445;DHT22;3764;48.126;11.594;2022-09-01T04:23:55;15.70;99.90
7445;DHT22;3764;48.126;11.594;2022-09-01T04:26:31;15.70;99.90
7445;DHT22;3764;48.126;11.594;2022-09-01T04:28:58;15.80;99.90
7445;DHT22;3764;48.126;11.594;2022-09-01T04:31:25;15.70;99.90
7445;DHT22;3764;48.126;11.594;2022-09-01T04:33:55;15.70;99.90
7445;DHT22;3764;48.126;11.594;2022-09-01T04:36:25;15.70;99.90
7445;DHT22;3764;48.126;11.594;2022-09-01T04:38:54;15.70;99.90
7445;DHT22;3764;48.126;11.594;2022-09-01T04:41:24;15.70;99.90
7445;DHT22;3764;48.126;11.594;2022-09-01T04:43:53;15.70;99.90
7445;DHT22;3764;48.126;11.594;2022-09-01T04:46:22;15.70;99.90
7445;DHT22;3764;48.126;11.594;2022-09-01T04:48:53;15.70;99.90
7445;DHT22;3764;48.126;11.594;2022-09-01T04:51:22;15.70;99.90
7445;DHT22;3764;48.126;11.594;2022-09-01T04:53:52;15.70;99.90
7445;DHT22;3764;48.126;11.594;2022-09-01T04:56:23;15.70;99.90
7445;DHT22;3764;48.126;11.594;2022-09-01T04:58:53;15.70;99.90
7445;DHT22;3764;48.126;11.594;2022-09-01T05:01:23;15.70;99.90
7445;DHT22;3764;48.126;11.594;2022-09-01T05:03:51;15.70;99.90
7445;DHT22;3764;48.126;11.594;2022-09-01T05:06:23;15.70;99.90
7445;DHT22;3764;48.126;11.594;2022-09-01T05:08:51;15.60;99.90
7445;DHT22;3764;48.126;11.594;2022-09-01T05:11:18;15.60;99.90
7445;DHT22;3764;48.126;11.594;2022-09-01T05:13:47;15.60;99.90
7445;DHT22;3764;48.126;11.594;2022-09-01T05:16:18;15.60;99.90
7445;DHT22;3764;48.126;11.594;2022-09-01T05:18:48;15.50;99.90
7445;DHT22;3764;48.126;11.594;2022-09-01T05:21:18;15.60;99.90
7445;DHT22;3764;48.126;11.594;2022-09-01T05:23:47;15.50;99.90
7445;DHT22;3764;48.126;11.594;2022-09-01T05:26:18;15.50;99.90
7445;DHT22;3764;48.126;11.594;2022-09-01T05:28:48;15.40;99.90
7445;DHT22;3764;48.126;11.594;2022-09-01T05:31:17;15.40;99.90
7445;DHT22;3764;48.126;11.594;2022-09-01T05:33:45;15.40;99.90
7445;DHT22;3764;48.126;11.594;2022-09-01T05:36:14;15.30;99.90
7445;DHT22;3764;48.126;11.594;2022-09-01T05:38:43;15.30;99.90
7445;DHT22;3764;48.126;11.594;2022-09-01T05:41:11;15.30;99.90
7445;DHT22;3764;48.126;11.594;2022-09-01T05:43:40;15.30;99.90
7445;DHT22;3764;48.126;11.594;2022-09-01T05:46:11;15.30;99.90
7445;DHT22;3764;48.126;11.594;2022-09-01T05:48:43;15.20;99.90
7445;DHT22;3764;48.126;11.594;2022-09-01T05:51:11;15.20;99.90
7445;DHT22;3764;48.126;11.594;2022-09-01T05:53:41;15.10;99.90
7445;DHT22;3764;48.126;11.594;2022-09-01T05:56:09;15.10;99.90
7445;DHT22;3764;48.126;11.594;2022-09-01T05:58:38;15.10;99.90
7445;DHT22;3764;48.126;11.594;2022-09-01T06:01:07;15.10;99.90
7445;DHT22;3764;48.126;11.594;2022-09-01T06:03:35;15.10;99.90
7445;DHT22;3764;48.126;11.594;2022-09-01T06:06:05;15.00;99.90
7445;DHT22;3764;48.126;11.594;2022-09-01T06:08:37;15.00;99.90
7445;DHT22;3764;48.126;11.594;2022-09-01T06:11:08;15.00;99.90
7445;DHT22;3764;48.126;11.594;2022-09-01T06:13:38;15.00;99.90
7445;DHT22;3764;48.126;11.594;2022-09-01T06:16:07;15.00;99.90
7445;DHT22;3764;48.126;11.594;2022-09-01T06:18:34;15.00;99.90
7445;DHT22;3764;48.126;11.594;2022-09-01T06:21:04;15.00;99.90
7445;DHT22;3764;48.126;11.594;2022-09-01T06:23:33;15.00;99.90
7445;DHT22;3764;48.126;11.594;2022-09-01T06:26:00;14.90;99.90
7445;DHT22;3764;48.126;11.594;2022-09-01T06:28:28;14.90;99.90
7445;DHT22;3764;48.126;11.594;2022-09-01T06:30:55;14.90;99.90
7445;DHT22;3764;48.126;11.594;2022-09-01T06:33:23;14.90;99.90
7445;DHT22;3764;48.126;11.594;2022-09-01T06:35:51;14.90;99.90
7445;DHT22;3764;48.126;11.594;2022-09-01T06:38:21;14.90;99.90
7445;DHT22;3764;48.126;11.594;2022-09-01T06:40:59;15.00;99.90
7445;DHT22;3764;48.126;11.594;2022-09-01T06:43:26;15.00;99.90
7445;DHT22;3764;48.126;11.594;2022-09-01T06:45:55;15.00;99.90
7445;DHT22;3764;48.126;11.594;2022-09-01T06:48:22;15.00;99.90
7445;DHT22;3764;48.126;11.594;2022-09-01T06:50:49;15.00;99.90
7445;DHT22;3764;48.126;11.594;2022-09-01T06:53:16;15.10;99.90
7445;DHT22;3764;48.126;11.594;2022-09-01T06:55:48;15.10;99.90
7445;DHT22;3764;48.126;11.594;2022-09-01T06:58:17;15.10;99.90
7445;DHT22;3764;48.126;11.594;2022-09-01T07:00:44;15.20;99.90
7445;DHT22;3764;48.126;11.594;2022-09-01T07:03:13;15.30;99.90
7445;DHT22;3764;48.126;11.594;2022-09-01T07:05:45;15.30;99.90
7445;DHT22;3764;48.126;11.594;2022-09-01T07:08:15;15.30;99.90
7445;DHT22;3764;48.126;11.594;2022-09-01T07:10:46;15.30;99.90
7445;DHT22;3764;48.126;11.594;2022-09-01T07:13:17;15.40;99.90
7445;DHT22;3764;48.126;11.594;2022-09-01T07:15:50;15.40;99.90
7445;DHT22;3764;48.126;11.594;2022-09-01T07:18:19;15.40;99.90
7445;DHT22;3764;48.126;11.594;2022-09-01T07:20:47;15.40;99.90
7445;DHT22;3764;48.126;11.594;2022-09-01T07:23:16;15.40;99.90
7445;DHT22;3764;48.126;11.594;2022-09-01T07:25:46;15.40;99.90
7445;DHT22;3764;48.126;11.594;2022-09-01T07:28:17;15.40;99.90
7445;DHT22;3764;48.126;11.594;2022-09-01T07:30:46;15.40;99.90
7445;DHT22;3764;48.126;11.594;2022-09-01T07:33:15;15.40;99.90
7445;DHT22;3764;48.126;11.594;2022-09-01T07:35:45;15.50;99.90
7445;DHT22;3764;48.126;11.594;2022-09-01T07:38:12;15.40;99.90
7445;DHT22;3764;48.126;11.594;2022-09-01T07:40:40;15.50;99.90
7445;DHT22;3764;48.126;11.594;2022-09-01T07:43:14;15.50;99.90
7445;DHT22;3764;48.126;11.594;2022-09-01T07:45:44;15.50;99.90
7445;DHT22;3764;48.126;11.594;2022-09-01T07:48:14;15.50;99.90
7445;DHT22;3764;48.126;11.594;2022-09-01T07:50:46;15.50;99.90
7445;DHT22;3764;48.126;11.594;2022-09-01T07:53:13;15.60;99.90
7445;DHT22;3764;48.126;11.594;2022-09-01T07:55:44;15.60;99.90
7445;DHT22;3764;48.126;11.594;2022-09-01T07:58:15;15.60;99.90
7445;DHT22;3764;48.126;11.594;2022-09-01T08:00:45;15.70;99.90
7445;DHT22;3764;48.126;11.594;2022-09-01T08:03:16;15.70;99.90
7445;DHT22;3764;48.126;11.594;2022-09-01T08:05:43;15.70;99.90
7445;DHT22;3764;48.126;11.594;2022-09-01T08:08:12;15.80;99.90
7445;DHT22;3764;48.126;11.594;2022-09-01T08:10:39;15.80;99.90
7445;DHT22;3764;48.126;11.594;2022-09-01T08:13:08;15.90;99.90
7445;DHT22;3764;48.126;11.594;2022-09-01T08:15:37;15.90;99.90
7445;DHT22;3764;48.126;11.594;2022-09-01T08:18:05;15.90;99.90
7445;DHT22;3764;48.126;11.594;2022-09-01T08:20:33;16.00;99.90
7445;DHT22;3764;48.126;11.594;2022-09-01T08:23:02;16.00;99.90
7445;DHT22;3764;48.126;11.594;2022-09-01T08:25:30;16.10;99.90
7445;DHT22;3764;48.126;11.594;2022-09-01T08:27:57;16.10;99.90
7445;DHT22;3764;48.126;11.594;2022-09-01T08:30:24;16.10;99.90
7445;DHT22;3764;48.126;11.594;2022-09-01T08:32:52;16.10;99.90
7445;DHT22;3764;48.126;11.594;2022-09-01T08:35:21;16.20;99.90
7445;DHT22;3764;48.126;11.594;2022-09-01T08:37:48;16.20;99.90
7445;DHT22;3764;48.126;11.594;2022-09-01T08:40:17;16.30;99.90
7445;DHT22;3764;48.126;11.594;2022-09-01T08:42:55;16.30;99.90
7445;DHT22;3764;48.126;11.594;2022-09-01T08:45:29;16.30;99.90
7445;DHT22;3764;48.126;11.594;2022-09-01T08:48:01;16.40;99.90
7445;DHT22;3764;48.126;11.594;2022-09-01T08:50:33;16.40;99.90
7445;DHT22;3764;48.126;11.594;2022-09-01T08:53:06;16.40;99.90
7445;DHT22;3764;48.126;11.594;2022-09-01T08:55:40;16.50;99.90
7445;DHT22;3764;48.126;11.594;2022-09-01T08:58:12;16.60;99.90
7445;DHT22;3764;48.126;11.594;2022-09-01T09:00:46;16.50;99.90
7445;DHT22;3764;48.126;11.594;2022-09-01T09:03:25;16.60;99.90
7445;DHT22;3764;48.126;11.594;2022-09-01T09:06:04;16.60;99.90
7445;DHT22;3764;48.126;11.594;2022-09-01T09:08:57;16.60;99.90
7445;DHT22;3764;48.126;11.594;2022-09-01T09:15:21;16.70;99.90
7445;DHT22;3764;48.126;11.594;2022-09-01T09:18:38;16.70;99.90
7445;DHT22;3764;48.126;11.594;2022-09-01T09:21:34;16.80;99.90
7445;DHT22;3764;48.126;11.594;2022-09-01T09:24:49;16.90;99.90
7445;DHT22;3764;48.126;11.594;2022-09-01T09:27:49;16.90;99.90
7445;DHT22;3764;48.126;11.594;2022-09-01T09:30:28;16.90;99.90
7445;DHT22;3764;48.126;11.594;2022-09-01T09:33:01;16.90;99.90
7445;DHT22;3764;48.126;11.594;2022-09-01T09:35:38;17.00;99.90
7445;DHT22;3764;48.126;11.594;2022-09-01T09:39:00;17.00;99.90
7445;DHT22;3764;48.126;11.594;2022-09-01T09:41:29;17.00;99.90
7445;DHT22;3764;48.126;11.594;2022-09-01T09:43:59;17.00;99.90
7445;DHT22;3764;48.126;11.594;2022-09-01T09:46:45;17.10;99.90
7445;DHT22;3764;48.126;11.594;2022-09-01T09:49:31;17.10;99.90
7445;DHT22;3764;48.126;11.594;2022-09-01T09:52:26;17.10;99.90
7445;DHT22;3764;48.126;11.594;2022-09-01T09:55:29;17.10;99.90
7445;DHT22;3764;48.126;11.594;2022-09-01T09:58:33;17.10;99.90
7445;DHT22;3764;48.126;11.594;2022-09-01T10:01:11;17.10;99.90
7445;DHT22;3764;48.126;11.594;2022-09-01T10:03:54;17.20;99.90
7445;DHT22;3764;48.126;11.594;2022-09-01T10:06:33;17.20;99.90
7445;DHT22;3764;48.126;11.594;2022-09-01T10:09:03;17.20;99.90
7445;DHT22;3764;48.126;11.594;2022-09-01T10:11:36;17.30;99.90
7445;DHT22;3764;48.126;11.594;2022-09-01T10:14:06;17.30;99.90
7445;DHT22;3764;48.126;11.594;2022-09-01T10:16:37;17.40;99.90
7445;DHT22;3764;48.126;11.594;2022-09-01T10:19:10;17.40;99.90
7445;DHT22;3764;48.126;11.594;2022-09-01T10:21:40;17.40;99.90
7445;DHT22;3764;48.126;11.594;2022-09-01T10:24:15;17.50;99.90
7445;DHT22;3764;48.126;11.594;2022-09-01T10:26:48;17.50;99.90
7445;DHT22;3764;48.126;11.594;2022-09-01T10:29:20;17.60;99.90
7445;DHT22;3764;48.126;11.594;2022-09-01T10:31:53;17.60;99.90
7445;DHT22;3764;48.126;11.594;2022-09-01T10:34:22;17.70;99.90
7445;DHT22;3764;48.126;11.594;2022-09-01T10:36:50;17.70;99.90
7445;DHT22;3764;48.126;11.594;2022-09-01T10:39:17;17.80;99.90
7445;DHT22;3764;48.126;11.594;2022-09-01T10:41:52;17.90;99.90
7445;DHT22;3764;48.126;11.594;2022-09-01T10:44:23;18.00;99.90
7445;DHT22;3764;48.126;11.594;2022-09-01T10:46:55;18.00;99.90
7445;DHT22;3764;48.126;11.594;2022-09-01T10:52:56;18.00;99.90
7445;DHT22;3764;48.126;11.594;2022-09-01T10:55:46;18.00;99.90
7445;DHT22;3764;48.126;11.594;2022-09-01T10:58:24;18.20;99.90
7445;DHT22;3764;48.126;11.594;2022-09-01T11:00:55;18.30;99.90
7445;DHT22;3764;48.126;11.594;2022-09-01T11:03:51;18.40;99.90
7445;DHT22;3764;48.126;11.594;2022-09-01T11:06:51;18.40;99.90
7445;DHT22;3764;48.126;11.594;2022-09-01T11:09:23;18.50;99.90
7445;DHT22;3764;48.126;11.594;2022-09-01T11:14:51;18.60;99.90
7445;DHT22;3764;48.126;11.594;2022-09-01T11:17:21;18.70;99.90
7445;DHT22;3764;48.126;11.594;2022-09-01T11:20:02;18.80;99.90
7445;DHT22;3764;48.126;11.594;2022-09-01T11:22:36;18.80;99.90
7445;DHT22;3764;48.126;11.594;2022-09-01T11:28:01;18.70;99.90
7445;DHT22;3764;48.126;11.594;2022-09-01T11:30:39;18.70;99.90
7445;DHT22;3764;48.126;11.594;2022-09-01T11:33:37;18.70;99.90
7445;DHT22;3764;48.126;11.594;2022-09-01T11:36:13;18.70;99.90
7445;DHT22;3764;48.126;11.594;2022-09-01T11:38:46;18.80;99.90
7445;DHT22;3764;48.126;11.594;2022-09-01T11:41:43;18.80;99.90
7445;DHT22;3764;48.126;11.594;2022-09-01T11:44:33;18.80;99.90
7445;DHT22;3764;48.126;11.594;2022-09-01T11:47:07;18.80;99.90
7445;DHT22;3764;48.126;11.594;2022-09-01T11:49:44;18.80;99.90
7445;DHT22;3764;48.126;11.594;2022-09-01T11:52:14;18.90;99.90
7445;DHT22;3764;48.126;11.594;2022-09-01T11:54:42;19.00;99.90
7445;DHT22;3764;48.126;11.594;2022-09-01T11:57:29;19.00;99.90
7445;DHT22;3764;48.126;11.594;2022-09-01T11:59:58;19.10;99.90
7445;DHT22;3764;48.126;11.594;2022-09-01T12:02:30;19.20;99.90
7445;DHT22;3764;48.126;11.594;2022-09-01T12:04:58;19.30;99.90
7445;DHT22;3764;48.126;11.594;2022-09-01T12:07:33;19.30;99.90
7445;DHT22;3764;48.126;11.594;2022-09-01T12:10:01;19.30;99.90
7445;DHT22;3764;48.126;11.594;2022-09-01T12:12:33;19.20;99.90
7445;DHT22;3764;48.126;11.594;2022-09-01T12:15:04;19.20;99.90
7445;DHT22;3764;48.126;11.594;2022-09-01T12:17:34;19.20;99.90
7445;DHT22;3764;48.126;11.594;2022-09-01T12:23:03;19.30;99.90
7445;DHT22;3764;48.126;11.594;2022-09-01T12:25:40;19.30;99.90
7445;DHT22;3764;48.126;11.594;2022-09-01T12:28:09;19.30;99.90
7445;DHT22;3764;48.126;11.594;2022-09-01T12:30:37;19.30;99.90
7445;DHT22;3764;48.126;11.594;2022-09-01T12:33:10;19.30;99.90
7445;DHT22;3764;48.126;11.594;2022-09-01T12:35:39;19.30;99.90
7445;DHT22;3764;48.126;11.594;2022-09-01T12:38:21;19.20;99.90
7445;DHT22;3764;48.126;11.594;2022-09-01T12:40:50;19.20;99.90
7445;DHT22;3764;48.126;11.594;2022-09-01T12:43:33;19.20;99.90
7445;DHT22;3764;48.126;11.594;2022-09-01T12:46:02;19.20;99.90
7445;DHT22;3764;48.126;11.594;2022-09-01T12:48:33;19.20;99.90
7445;DHT22;3764;48.126;11.594;2022-09-01T12:51:03;19.30;99.90
7445;DHT22;3764;48.126;11.594;2022-09-01T12:53:33;19.30;99.90
7445;DHT22;3764;48.126;11.594;2022-09-01T12:56:22;19.20;99.90
7445;DHT22;3764;48.126;11.594;2022-09-01T12:59:04;19.30;99.90
7445;DHT22;3764;48.126;11.594;2022-09-01T13:01:35;19.30;99.90
7445;DHT22;3764;48.126;11.594;2022-09-01T13:04:13;19.30;99.90
7445;DHT22;3764;48.126;11.594;2022-09-01T13:06:40;19.30;99.90
7445;DHT22;3764;48.126;11.594;2022-09-01T13:09:07;19.30;99.90
7445;DHT22;3764;48.126;11.594;2022-09-01T13:11:34;19.30;99.90
7445;DHT22;3764;48.126;11.594;2022-09-01T13:14:02;19.40;99.90
7445;DHT22;3764;48.126;11.594;2022-09-01T13:16:29;19.40;99.90
7445;DHT22;3764;48.126;11.594;2022-09-01T13:18:56;19.40;99.90
7445;DHT22;3764;48.126;11.594;2022-09-01T13:21:25;19.40;99.90
7445;DHT22;3764;48.126;11.594;2022-09-01T13:23:53;19.40;99.90
7445;DHT22;3764;48.126;11.594;2022-09-01T13:26:20;19.50;99.90
7445;DHT22;3764;48.126;11.594;2022-09-01T13:28:48;19.50;99.90
7445;DHT22;3764;48.126;11.594;2022-09-01T13:31:15;19.50;99.90
7445;DHT22;3764;48.126;11.594;2022-09-01T13:33:43;19.50;99.90
7445;DHT22;3764;48.126;11.594;2022-09-01T13:36:10;19.50;99.90
7445;DHT22;3764;48.126;11.594;2022-09-01T13:38:38;19.50;99.90
7445;DHT22;3764;48.126;11.594;2022-09-01T13:41:05;19.50;99.90
7445;DHT22;3764;48.126;11.594;2022-09-01T13:43:34;19.50;99.90
7445;DHT22;3764;48.126;11.594;2022-09-01T13:46:01;19.40;99.90
7445;DHT22;3764;48.126;11.594;2022-09-01T13:48:28;19.40;99.90
7445;DHT22;3764;48.126;11.594;2022-09-01T13:50:56;19.40;99.90
7445;DHT22;3764;48.126;11.594;2022-09-01T13:53:24;19.40;99.90
7445;DHT22;3764;48.126;11.594;2022-09-01T13:55:52;19.50;99.90
7445;DHT22;3764;48.126;11.594;2022-09-01T13:58:19;19.50;99.90
7445;DHT22;3764;48.126;11.594;2022-09-01T14:00:47;19.60;99.90
7445;DHT22;3764;48.126;11.594;2022-09-01T14:03:17;19.60;99.90
7445;DHT22;3764;48.126;11.594;2022-09-01T14:05:46;19.60;99.90
7445;DHT22;3764;48.126;11.594;2022-09-01T14:08:15;19.50;99.90
7445;DHT22;3764;48.126;11.594;2022-09-01T14:10:44;19.60;99.90
7445;DHT22;3764;48.126;11.594;2022-09-01T14:13:15;19.60;99.90
7445;DHT22;3764;48.126;11.594;2022-09-01T14:15:42;19.60;99.90
7445;DHT22;3764;48.126;11.594;2022-09-01T14:18:11;19.60;99.90
7445;DHT22;3764;48.126;11.594;2022-09-01T14:20:43;19.70;99.90
7445;DHT22;3764;48.126;11.594;2022-09-01T14:23:11;19.80;99.90
7445;DHT22;3764;48.126;11.594;2022-09-01T14:25:41;19.80;99.90
7445;DHT22;3764;48.126;11.594;2022-09-01T14:28:08;19.80;99.90
7445;DHT22;3764;48.126;11.594;2022-09-01T14:30:39;19.80;99.90
7445;DHT22;3764;48.126;11.594;2022-09-01T14:33:09;19.80;99.90
7445;DHT22;3764;48.126;11.594;2022-09-01T14:35:37;19.80;99.90
7445;DHT22;3764;48.126;11.594;2022-09-01T14:38:05;19.80;99.90
7445;DHT22;3764;48.126;11.594;2022-09-01T14:40:33;19.80;99.90
7445;DHT22;3764;48.126;11.594;2022-09-01T14:43:02;19.80;99.90
7445;DHT22;3764;48.126;11.594;2022-09-01T14:45:30;19.80;99.90
7445;DHT22;3764;48.126;11.594;2022-09-01T14:48:00;19.90;99.90
7445;DHT22;3764;48.126;11.594;2022-09-01T14:50:28;19.90;99.90
7445;DHT22;3764;48.126;11.594;2022-09-01T14:52:58;19.90;99.90
7445;DHT22;3764;48.126;11.594;2022-09-01T14:55:27;19.90;99.90
7445;DHT22;3764;48.126;11.594;2022-09-01T14:57:54;19.90;99.90
7445;DHT22;3764;48.126;11.594;2022-09-01T15:00:23;19.90;99.90
7445;DHT22;3764;48.126;11.594;2022-09-01T15:02:51;19.90;99.90
7445;DHT22;3764;48.126;11.594;2022-09-01T15:05:20;19.90;99.90
7445;DHT22;3764;48.126;11.594;2022-09-01T15:07:48;19.90;99.90
7445;DHT22;3764;48.126;11.594;2022-09-01T15:10:20;19.90;99.90
7445;DHT22;3764;48.126;11.594;2022-09-01T15:12:47;19.90;99.90
7445;DHT22;3764;48.126;11.594;2022-09-01T15:15:15;19.90;99.90
7445;DHT22;3764;48.126;11.594;2022-09-01T15:17:43;19.90;99.90
7445;DHT22;3764;48.126;11.594;2022-09-01T15:20:10;19.90;99.90
7445;DHT22;3764;48.126;11.594;2022-09-01T15:22:56;19.90;99.90
7445;DHT22;3764;48.126;11.594;2022-09-01T15:25:23;20.00;99.90
7445;DHT22;3764;48.126;11.594;2022-09-01T15:27:51;20.00;99.90
7445;DHT22;3764;48.126;11.594;2022-09-01T15:30:18;20.00;99.90
7445;DHT22;3764;48.126;11.594;2022-09-01T15:32:48;20.00;99.90
7445;DHT22;3764;48.126;11.594;2022-09-01T15:35:17;20.10;99.90
7445;DHT22;3764;48.126;11.594;2022-09-01T15:37:45;20.10;99.90
7445;DHT22;3764;48.126;11.594;2022-09-01T15:40:14;20.20;99.90
7445;DHT22;3764;48.126;11.594;2022-09-01T15:42:41;20.20;99.90
7445;DHT22;3764;48.126;11.594;2022-09-01T15:45:10;20.40;99.90
7445;DHT22;3764;48.126;11.594;2022-09-01T15:47:37;20.40;99.90
7445;DHT22;3764;48.126;11.594;2022-09-01T15:50:07;20.40;99.90
7445;DHT22;3764;48.126;11.594;2022-09-01T15:52:35;20.50;99.90
7445;DHT22;3764;48.126;11.594;2022-09-01T15:55:14;20.40;99.90
7445;DHT22;3764;48.126;11.594;2022-09-01T15:57:41;20.40;99.90
7445;DHT22;3764;48.126;11.594;2022-09-01T16:00:10;20.20;99.90
7445;DHT22;3764;48.126;11.594;2022-09-01T16:02:37;20.20;99.90
7445;DHT22;3764;48.126;11.594;2022-09-01T16:05:05;20.10;99.90
7445;DHT22;3764;48.126;11.594;2022-09-01T16:07:32;20.00;99.90
7445;DHT22;3764;48.126;11.594;2022-09-01T16:09:59;19.90;99.90
7445;DHT22;3764;48.126;11.594;2022-09-01T16:12:28;19.80;99.90
7445;DHT22;3764;48.126;11.594;2022-09-01T16:14:55;19.80;99.90
7445;DHT22;3764;48.126;11.594;2022-09-01T16:17:30;19.80;99.90
7445;DHT22;3764;48.126;11.594;2022-09-01T16:20:08;19.80;99.90
7445;DHT22;3764;48.126;11.594;2022-09-01T16:22:41;19.80;99.90
7445;DHT22;3764;48.126;11.594;2022-09-01T16:25:13;19.80;99.90
7445;DHT22;3764;48.126;11.594;2022-09-01T16:27:44;19.70;99.90